Time;durP1;ratioP1;P1;durP2;ratioP2;P2;SDS_P1;SDS_P2;PMS_P1;PMS_P2;Temp;Humidity;BMP_temperature;BMP_pressure;BME280_temperature;BME280_humidity;BME280_pressure;Samples;Min_cycle;Max_cycle;Signal;HPM_P1;HPM_P2
2022/01/11 00:00:43;;;;;;;15.67;8.70;;;10.20;99.90;;;;;;5092637;28;20703;-73
2022/01/11 00:03:09;;;;;;;15.23;8.37;;;10.20;99.90;;;;;;5106512;28;20674;-74
2022/01/11 00:08:02;;;;;;;15.57;8.77;;;10.20;99.90;;;;;;5112874;28;20262;-73
2022/01/11 00:10:35;;;;;;;19.17;8.47;;;10.30;99.90;;;;;;5113068;28;20163;-74
2022/01/11 00:13:01;;;;;;;14.33;8.30;;;10.20;99.90;;;;;;5112730;28;20183;-73
2022/01/11 00:15:28;;;;;;;13.33;7.70;;;10.30;99.90;;;;;;5107954;28;20258;-74
2022/01/11 00:17:56;;;;;;;15.80;8.17;;;10.20;99.90;;;;;;5094705;28;20198;-73
2022/01/11 00:20:24;;;;;;;20.10;8.73;;;10.20;99.90;;;;;;5095343;28;20695;-73
2022/01/11 00:25:25;;;;;;;16.27;8.57;;;10.20;99.90;;;;;;5112724;28;20261;-72
2022/01/11 00:27:51;;;;;;;17.37;8.20;;;10.20;99.90;;;;;;5112637;28;20690;-66
2022/01/11 00:30:17;;;;;;;15.17;9.03;;;10.10;99.90;;;;;;5103844;28;20167;-67
2022/01/11 00:32:48;;;;;;;16.17;8.00;;;10.10;99.90;;;;;;5093001;28;20583;-78
2022/01/11 00:35:16;;;;;;;17.33;8.53;;;10.00;99.90;;;;;;5098225;28;20262;-77
2022/01/11 00:37:44;;;;;;;15.57;8.10;;;10.00;99.90;;;;;;5108768;28;20216;-77
2022/01/11 00:40:11;;;;;;;15.97;9.27;;;9.90;99.90;;;;;;5094880;28;20792;-77
2022/01/11 00:42:37;;;;;;;15.33;8.70;;;9.90;99.90;;;;;;5091851;28;20204;-79
2022/01/11 00:45:07;;;;;;;14.17;8.47;;;9.80;99.90;;;;;;5096121;28;20282;-80
2022/01/11 00:47:33;;;;;;;14.73;8.23;;;9.80;99.90;;;;;;5099934;28;20650;-80
2022/01/11 00:49:59;;;;;;;16.83;8.67;;;9.80;99.90;;;;;;5092325;28;20217;-81
2022/01/11 00:52:25;;;;;;;19.20;8.63;;;9.80;99.90;;;;;;5093344;28;20579;-81
2022/01/11 00:54:50;;;;;;;19.47;9.10;;;9.80;99.90;;;;;;5103446;28;20184;-81
2022/01/11 00:57:16;;;;;;;17.20;9.33;;;9.70;99.90;;;;;;5092600;28;20167;-81
2022/01/11 00:59:42;;;;;;;19.80;9.67;;;9.70;99.90;;;;;;5091315;28;20184;-82
2022/01/11 01:02:08;;;;;;;22.10;10.43;;;9.70;99.90;;;;;;5093499;28;20239;-81
2022/01/11 01:04:34;;;;;;;21.20;10.33;;;9.70;99.90;;;;;;5095551;28;20658;-81
2022/01/11 01:06:59;;;;;;;19.70;9.73;;;9.70;99.90;;;;;;5112081;28;20298;-81
2022/01/11 01:09:31;;;;;;;18.77;10.80;;;9.70;99.90;;;;;;5101869;28;20187;-79
2022/01/11 01:11:57;;;;;;;23.23;10.97;;;9.70;99.90;;;;;;5091912;28;20176;-80
2022/01/11 01:14:22;;;;;;;20.57;11.73;;;9.70;99.90;;;;;;5092356;28;20698;-80
2022/01/11 01:16:48;;;;;;;22.97;11.63;;;9.70;99.90;;;;;;5091889;28;20609;-80
2022/01/11 01:19:14;;;;;;;38.97;15.87;;;9.60;99.90;;;;;;5091795;28;20665;-80
2022/01/11 01:21:40;;;;;;;27.70;13.83;;;9.60;99.90;;;;;;5093575;28;20202;-81
2022/01/11 01:24:08;;;;;;;28.33;13.47;;;9.60;99.90;;;;;;5093934;28;20180;-81
2022/01/11 01:26:33;;;;;;;23.10;12.20;;;9.60;99.90;;;;;;5094852;28;20179;-79
2022/01/11 01:29:00;;;;;;;20.33;10.67;;;9.50;99.90;;;;;;5092872;28;20546;-80
2022/01/11 01:31:27;;;;;;;22.17;9.90;;;9.50;99.90;;;;;;5092607;28;20167;-82
2022/01/11 01:33:54;;;;;;;18.30;10.60;;;9.50;99.90;;;;;;5091205;28;20210;-63
2022/01/11 01:36:20;;;;;;;24.27;11.70;;;9.50;99.90;;;;;;5092633;28;20176;-82
2022/01/11 01:38:46;;;;;;;25.70;13.03;;;9.60;99.90;;;;;;5096902;28;20233;-81
2022/01/11 01:41:19;;;;;;;27.97;12.77;;;9.60;99.90;;;;;;5107065;28;20730;-79
2022/01/11 01:43:49;;;;;;;26.67;12.63;;;9.60;99.90;;;;;;5107579;28;20211;-80
2022/01/11 01:46:16;;;;;;;32.37;13.03;;;9.60;99.90;;;;;;5107924;28;20175;-79
2022/01/11 01:48:42;;;;;;;26.20;12.00;;;9.70;99.90;;;;;;5111639;28;20182;-80
2022/01/11 01:51:10;;;;;;;23.20;11.33;;;9.70;99.90;;;;;;5112912;28;20657;-80
2022/01/11 01:53:38;;;;;;;22.80;11.57;;;9.70;99.90;;;;;;5113299;28;20658;-80
2022/01/11 01:56:05;;;;;;;25.13;12.73;;;9.70;99.90;;;;;;5094546;28;20179;-80
2022/01/11 01:58:31;;;;;;;27.93;12.10;;;9.80;99.90;;;;;;5105124;28;20234;-80
2022/01/11 02:01:03;;;;;;;25.03;11.77;;;9.80;99.90;;;;;;5100071;28;20174;-81
2022/01/11 02:03:31;;;;;;;19.80;10.60;;;9.80;99.90;;;;;;5113697;28;20202;-80
2022/01/11 02:05:58;;;;;;;27.90;11.47;;;9.80;99.90;;;;;;5100221;28;20262;-80
2022/01/11 02:08:27;;;;;;;18.00;9.70;;;9.90;99.90;;;;;;5103356;28;20232;-80
2022/01/11 02:10:53;;;;;;;17.57;9.40;;;9.90;99.90;;;;;;5115339;28;20655;-81
2022/01/11 02:13:19;;;;;;;20.33;10.27;;;10.00;99.90;;;;;;5117338;28;20247;-81
2022/01/11 02:15:45;;;;;;;19.93;9.90;;;9.90;99.90;;;;;;5109163;28;20623;-81
2022/01/11 02:18:14;;;;;;;18.43;9.20;;;9.90;99.90;;;;;;5102408;28;20171;-81
2022/01/11 02:20:43;;;;;;;22.37;9.87;;;9.90;99.90;;;;;;5116226;28;20159;-80
2022/01/11 02:23:09;;;;;;;22.97;10.03;;;10.00;99.90;;;;;;5117275;28;20222;-83
2022/01/11 02:25:36;;;;;;;21.63;9.93;;;9.80;99.90;;;;;;5116007;28;20159;-83
2022/01/11 02:28:02;;;;;;;22.33;10.00;;;9.70;99.90;;;;;;5108120;28;20309;-82
2022/01/11 02:30:32;;;;;;;19.07;9.60;;;9.70;99.90;;;;;;5105486;28;20171;-82
2022/01/11 02:32:58;;;;;;;17.00;9.73;;;9.70;99.90;;;;;;5102664;28;20172;-83
2022/01/11 02:35:24;;;;;;;22.47;10.77;;;9.60;99.90;;;;;;5096049;28;20186;-83
2022/01/11 02:37:50;;;;;;;23.70;10.30;;;9.60;99.90;;;;;;5095647;28;20246;-83
2022/01/11 02:40:16;;;;;;;22.77;11.33;;;9.60;99.90;;;;;;5113066;28;20234;-82
2022/01/11 02:42:42;;;;;;;22.43;11.07;;;9.60;99.90;;;;;;5097631;28;20223;-79
2022/01/11 02:45:16;;;;;;;22.40;10.50;;;9.60;99.90;;;;;;5104203;28;20175;-79
2022/01/11 02:47:43;;;;;;;19.70;10.80;;;9.60;99.90;;;;;;5096732;28;20175;-79
2022/01/11 02:50:09;;;;;;;19.53;10.60;;;9.60;99.90;;;;;;5113703;28;20192;-79
2022/01/11 02:52:35;;;;;;;20.07;9.30;;;9.60;99.90;;;;;;5112936;27;20182;-79
2022/01/11 02:55:03;;;;;;;20.67;10.37;;;9.50;99.90;;;;;;5104320;28;20229;-80
2022/01/11 02:57:28;;;;;;;24.53;10.67;;;9.50;99.90;;;;;;5110820;28;20171;-79
2022/01/11 02:59:54;;;;;;;22.50;10.87;;;9.50;99.90;;;;;;5115798;28;20270;-80
2022/01/11 03:02:20;;;;;;;29.83;11.03;;;9.60;99.90;;;;;;5104431;28;20665;-81
2022/01/11 03:04:46;;;;;;;24.67;10.87;;;9.60;99.90;;;;;;5114903;28;20182;-81
2022/01/11 03:07:17;;;;;;;25.20;10.97;;;9.60;99.90;;;;;;5113635;28;20174;-81
2022/01/11 03:10:04;;;;;;;25.00;10.33;;;9.60;99.90;;;;;;5113922;28;20244;-81
2022/01/11 03:12:30;;;;;;;25.93;10.73;;;9.70;99.90;;;;;;5113676;28;20180;-81
2022/01/11 03:14:56;;;;;;;21.83;10.63;;;9.70;99.90;;;;;;5101465;28;20186;-80
2022/01/11 03:17:21;;;;;;;22.03;11.23;;;9.70;99.90;;;;;;5108734;28;20638;-81
2022/01/11 03:19:47;;;;;;;23.47;10.30;;;9.70;99.90;;;;;;5113924;28;20172;-80
2022/01/11 03:22:13;;;;;;;21.60;10.23;;;9.70;99.90;;;;;;5105878;28;20214;-79
2022/01/11 03:24:39;;;;;;;22.53;10.23;;;9.70;99.90;;;;;;5093606;28;20180;-80
2022/01/11 03:27:07;;;;;;;21.27;10.20;;;9.80;99.90;;;;;;5094582;28;20186;-78
2022/01/11 03:29:34;;;;;;;25.73;10.60;;;9.80;99.90;;;;;;5113209;28;20176;-78
2022/01/11 03:32:00;;;;;;;18.30;9.70;;;9.80;99.90;;;;;;5108125;28;20172;-78
2022/01/11 03:34:26;;;;;;;19.37;10.40;;;9.80;99.90;;;;;;5093410;28;20459;-77
2022/01/11 03:36:51;;;;;;;24.07;10.27;;;9.80;99.90;;;;;;5093277;28;20232;-77
2022/01/11 03:39:17;;;;;;;20.83;9.60;;;9.80;99.90;;;;;;5093159;28;20179;-78
2022/01/11 03:41:43;;;;;;;17.37;9.23;;;9.80;99.90;;;;;;5106302;28;20219;-79
2022/01/11 03:44:09;;;;;;;25.43;10.40;;;9.80;99.90;;;;;;5093892;28;20188;-78
2022/01/11 03:46:35;;;;;;;22.00;11.40;;;9.80;99.90;;;;;;5111583;28;20538;-79
2022/01/11 03:49:00;;;;;;;20.03;10.77;;;9.80;99.90;;;;;;5113558;28;20167;-76
2022/01/11 03:51:26;;;;;;;19.47;10.57;;;9.70;99.90;;;;;;5111748;28;20621;-78
2022/01/11 03:54:03;;;;;;;24.83;10.30;;;9.70;99.90;;;;;;5091655;28;20179;-78
2022/01/11 03:56:29;;;;;;;21.93;10.37;;;9.70;99.90;;;;;;5101090;28;20179;-78
2022/01/11 03:58:55;;;;;;;24.20;10.57;;;9.60;99.90;;;;;;5094330;28;20183;-78
2022/01/11 04:01:22;;;;;;;20.13;9.77;;;9.60;99.90;;;;;;5107661;28;20259;-78
2022/01/11 04:03:48;;;;;;;21.67;10.23;;;9.60;99.90;;;;;;5110010;28;20684;-78
2022/01/11 04:06:16;;;;;;;26.80;10.87;;;9.70;99.90;;;;;;5109178;28;20190;-78
2022/01/11 04:08:44;;;;;;;24.83;9.93;;;9.70;99.90;;;;;;5104445;28;20179;-77
2022/01/11 04:11:11;;;;;;;21.87;10.67;;;9.70;99.90;;;;;;5105894;28;20172;-77
2022/01/11 04:13:38;;;;;;;21.43;9.80;;;9.80;99.90;;;;;;5107545;28;20655;-76
2022/01/11 04:16:05;;;;;;;25.50;10.07;;;9.80;99.90;;;;;;5099607;28;20181;-74
2022/01/11 04:18:30;;;;;;;23.10;9.93;;;9.80;99.90;;;;;;5092355;28;20172;-74
2022/01/11 04:20:56;;;;;;;18.63;9.40;;;9.90;99.90;;;;;;5092298;28;20186;-74
2022/01/11 04:23:23;;;;;;;17.27;9.27;;;9.80;99.90;;;;;;5104643;28;20309;-74
2022/01/11 04:25:49;;;;;;;16.23;9.67;;;9.80;99.90;;;;;;5110766;28;20175;-75
2022/01/11 04:28:15;;;;;;;19.37;9.70;;;9.80;99.90;;;;;;5112184;28;20224;-75
2022/01/11 04:30:41;;;;;;;23.63;10.27;;;9.80;99.90;;;;;;5111169;28;20175;-76
2022/01/11 04:33:06;;;;;;;20.60;9.80;;;9.80;99.90;;;;;;5100912;28;20232;-77
2022/01/11 04:35:32;;;;;;;23.73;10.60;;;9.80;99.90;;;;;;5092126;28;20190;-77
2022/01/11 04:37:58;;;;;;;22.93;10.97;;;9.80;99.90;;;;;;5094110;28;20631;-76
2022/01/11 04:40:24;;;;;;;23.77;10.53;;;9.80;99.90;;;;;;5111734;28;20700;-68
2022/01/11 04:42:50;;;;;;;20.57;9.53;;;9.90;99.90;;;;;;5104081;28;20211;-76
2022/01/11 04:45:16;;;;;;;16.87;9.53;;;9.90;99.90;;;;;;5091922;28;20638;-75
2022/01/11 04:47:44;;;;;;;16.33;9.53;;;9.90;99.90;;;;;;5111854;28;20734;-75
2022/01/11 04:50:10;;;;;;;19.13;9.53;;;9.80;99.90;;;;;;5111868;28;20210;-76
2022/01/11 04:52:36;;;;;;;21.47;9.20;;;9.80;99.90;;;;;;5106052;28;20632;-76
2022/01/11 04:55:03;;;;;;;23.87;10.10;;;9.80;99.90;;;;;;5106073;28;20633;-75
2022/01/11 04:57:28;;;;;;;24.17;10.00;;;9.70;99.90;;;;;;5111643;28;20214;-75
2022/01/11 04:59:54;;;;;;;19.77;10.03;;;9.80;99.90;;;;;;5110527;28;20202;-78
2022/01/11 05:02:20;;;;;;;19.90;10.50;;;9.80;99.90;;;;;;5108274;27;20195;-78
2022/01/11 05:04:46;;;;;;;21.83;10.87;;;9.80;99.90;;;;;;5091644;28;20199;-78
2022/01/11 05:07:11;;;;;;;26.57;10.80;;;9.80;99.90;;;;;;5091588;28;20258;-77
2022/01/11 05:09:37;;;;;;;20.73;9.63;;;9.80;99.90;;;;;;5091609;28;20176;-79
2022/01/11 05:12:03;;;;;;;24.97;11.10;;;9.90;99.90;;;;;;5093925;28;20221;-78
2022/01/11 05:14:29;;;;;;;19.80;10.23;;;9.90;99.90;;;;;;5112075;28;20278;-79
2022/01/11 05:16:55;;;;;;;20.57;9.30;;;9.80;99.90;;;;;;5111392;28;20267;-79
2022/01/11 05:19:20;;;;;;;19.50;10.00;;;9.80;99.90;;;;;;5112085;28;20172;-79
2022/01/11 05:21:46;;;;;;;20.50;10.17;;;9.70;99.90;;;;;;5111319;28;20629;-80
2022/01/11 05:24:12;;;;;;;22.40;9.93;;;9.70;99.90;;;;;;5093610;28;20176;-80
2022/01/11 05:26:39;;;;;;;18.50;10.43;;;9.70;99.90;;;;;;5091929;28;20211;-80
2022/01/11 05:29:04;;;;;;;26.03;10.53;;;9.70;99.90;;;;;;5103629;28;20235;-80
2022/01/11 05:31:33;;;;;;;29.43;11.67;;;8.90;99.90;;;;;;5110182;28;20697;-77
2022/01/11 05:33:59;;;;;;;24.50;10.70;;;9.70;99.90;;;;;;5110086;28;20175;-77
2022/01/11 05:36:24;;;;;;;21.33;10.17;;;9.70;99.90;;;;;;5105294;28;20183;-77
2022/01/11 05:38:51;;;;;;;26.10;11.30;;;9.70;99.90;;;;;;5108707;28;20189;-79
2022/01/11 05:41:16;;;;;;;25.17;11.47;;;9.70;99.90;;;;;;5090867;28;20227;-73
2022/01/11 05:43:42;;;;;;;23.60;11.00;;;9.70;99.90;;;;;;5092080;28;20695;-73
2022/01/11 05:46:08;;;;;;;28.33;11.23;;;9.80;99.90;;;;;;5105095;28;20619;-73
2022/01/11 05:48:34;;;;;;;28.50;11.30;;;9.80;99.90;;;;;;5118252;27;20174;-77
2022/01/11 05:51:03;;;;;;;27.77;11.13;;;9.80;99.90;;;;;;5118540;27;20178;-77
2022/01/11 05:53:29;;;;;;;28.27;11.43;;;9.80;99.90;;;;;;5117594;27;20193;-77
2022/01/11 05:55:55;;;;;;;15.90;7.33;;;9.90;99.90;;;;;;5110482;27;20254;-77
2022/01/11 05:58:24;;;;;;;18.50;6.87;;;10.00;99.90;;;;;;5115163;28;20266;-78
2022/01/11 06:00:54;;;;;;;16.00;6.90;;;10.00;99.90;;;;;;5118090;28;20228;-78
2022/01/11 06:03:20;;;;;;;17.20;6.87;;;10.50;99.90;;;;;;5092972;28;20219;-77
2022/01/11 06:05:46;;;;;;;16.10;7.67;;;10.30;99.90;;;;;;5103103;28;20177;-77
2022/01/11 06:08:16;;;;;;;15.33;7.70;;;10.30;99.90;;;;;;5117161;27;20179;-77
2022/01/11 06:10:45;;;;;;;14.40;7.10;;;10.40;99.90;;;;;;5118300;27;20171;-79
2022/01/11 06:13:11;;;;;;;13.33;6.87;;;10.50;99.90;;;;;;5118079;27;20534;-78
2022/01/11 06:15:38;;;;;;;14.50;6.87;;;10.50;99.90;;;;;;5118090;27;20187;-79
2022/01/11 06:18:05;;;;;;;16.00;8.27;;;10.30;99.90;;;;;;5103580;28;20646;-78
2022/01/11 06:20:31;;;;;;;18.93;8.33;;;10.40;99.90;;;;;;5116764;28;20271;-77
2022/01/11 06:22:57;;;;;;;19.57;9.17;;;10.40;99.90;;;;;;5102740;27;20719;-75
2022/01/11 06:25:23;;;;;;;23.33;8.73;;;10.40;99.90;;;;;;5114597;28;20656;-75
2022/01/11 06:27:49;;;;;;;18.63;8.33;;;10.40;99.90;;;;;;5110852;28;20175;-74
2022/01/11 06:30:16;;;;;;;62.27;9.83;;;10.40;99.90;;;;;;5103678;28;20190;-75
2022/01/11 06:32:45;;;;;;;21.07;9.07;;;10.40;99.90;;;;;;5117000;27;20198;-75
2022/01/11 06:35:20;;;;;;;18.13;9.30;;;10.40;99.90;;;;;;5117604;27;20183;-74
2022/01/11 06:37:46;;;;;;;28.03;9.87;;;10.40;99.90;;;;;;5099173;28;20220;-75
2022/01/11 06:40:14;;;;;;;112.03;12.03;;;10.40;99.90;;;;;;5115573;27;20215;-68
2022/01/11 06:42:40;;;;;;;32.43;10.53;;;10.40;99.90;;;;;;5100474;28;20274;-65
2022/01/11 06:45:06;;;;;;;20.20;9.87;;;10.40;99.90;;;;;;5108655;27;20189;-77
2022/01/11 06:47:32;;;;;;;22.83;9.53;;;10.30;99.90;;;;;;5098274;28;20203;-76
2022/01/11 06:49:58;;;;;;;222.47;17.17;;;10.30;99.90;;;;;;5103628;28;20259;-76
2022/01/11 06:52:24;;;;;;;28.10;10.13;;;10.30;99.90;;;;;;5107885;27;20221;-76
2022/01/11 06:54:50;;;;;;;240.87;16.33;;;10.30;99.90;;;;;;5097145;28;20634;-76
2022/01/11 06:57:15;;;;;;;19.57;9.43;;;10.30;99.90;;;;;;5102719;28;20174;-75
2022/01/11 06:59:41;;;;;;;82.50;11.03;;;10.30;99.90;;;;;;5111918;28;20172;-75
2022/01/11 07:02:07;;;;;;;23.60;9.57;;;10.30;99.90;;;;;;5098398;28;20179;-75
2022/01/11 07:04:34;;;;;;;25.67;10.80;;;10.30;99.90;;;;;;5093942;28;20172;-76
2022/01/11 07:07:00;;;;;;;22.87;10.37;;;10.30;99.90;;;;;;5093735;28;20168;-76
2022/01/11 07:09:26;;;;;;;44.27;12.43;;;10.30;99.90;;;;;;5104155;28;20193;-79
2022/01/11 07:11:51;;;;;;;542.67;25.90;;;10.30;99.90;;;;;;5100445;28;20249;-77
2022/01/11 07:14:17;;;;;;;34.53;11.13;;;10.30;99.90;;;;;;5093712;28;20259;-77
2022/01/11 07:16:48;;;;;;;23.47;9.27;;;9.70;99.90;;;;;;5093554;28;20183;-76
2022/01/11 07:19:17;;;;;;;27.37;9.47;;;10.40;99.90;;;;;;5108419;28;20186;-75
2022/01/11 07:21:44;;;;;;;99.63;11.93;;;10.40;99.90;;;;;;5110877;28;20221;-76
2022/01/11 07:24:14;;;;;;;77.87;11.97;;;10.40;99.90;;;;;;5102338;28;20206;-75
2022/01/11 07:26:40;;;;;;;208.00;19.27;;;10.40;99.90;;;;;;5110071;28;20175;-76
2022/01/11 07:29:07;;;;;;;22.97;9.97;;;10.40;99.90;;;;;;5094489;28;20175;-75
2022/01/11 07:31:36;;;;;;;20.37;10.03;;;10.50;99.90;;;;;;5094365;28;20197;-76
2022/01/11 07:34:03;;;;;;;96.47;12.70;;;10.40;99.90;;;;;;5093587;28;20235;-75
2022/01/11 07:36:28;;;;;;;1308.40;66.63;;;10.50;99.90;;;;;;5094278;28;20163;-74
2022/01/11 07:38:54;;;;;;;1120.37;49.23;;;10.60;99.90;;;;;;5100879;28;20175;-75
2022/01/11 07:41:20;;;;;;;37.33;12.47;;;10.60;99.90;;;;;;5112772;28;20267;-76
2022/01/11 07:43:46;;;;;;;206.30;20.67;;;10.60;99.90;;;;;;5108475;28;20214;-75
2022/01/11 07:46:12;;;;;;;438.10;26.63;;;10.60;99.90;;;;;;5092549;28;20236;-76
2022/01/11 07:48:37;;;;;;;32.77;10.73;;;10.50;99.90;;;;;;5092861;28;20286;-75
2022/01/11 07:51:04;;;;;;;29.73;10.87;;;10.50;99.90;;;;;;5092849;28;20654;-75
2022/01/11 07:53:29;;;;;;;31.23;11.63;;;10.50;99.90;;;;;;5109605;28;20304;-76
2022/01/11 07:55:55;;;;;;;35.37;12.23;;;10.50;99.90;;;;;;5111468;28;20214;-77
2022/01/11 07:58:21;;;;;;;40.03;12.30;;;10.50;99.90;;;;;;5106038;28;20562;-77
2022/01/11 08:00:47;;;;;;;1598.80;97.03;;;10.50;99.90;;;;;;5103197;28;20171;-62
2022/01/11 08:03:13;;;;;;;394.80;28.37;;;10.50;99.90;;;;;;5092612;28;20298;-62
2022/01/11 08:05:39;;;;;;;31.87;12.40;;;10.50;99.90;;;;;;5103912;28;20180;-62
2022/01/11 08:08:05;;;;;;;35.57;12.27;;;10.50;99.90;;;;;;5092238;28;20172;-63
2022/01/11 08:10:31;;;;;;;35.20;12.47;;;10.50;99.90;;;;;;5096077;28;20646;-64
2022/01/11 08:12:57;;;;;;;33.07;12.90;;;10.50;99.90;;;;;;5108052;28;20229;-64
2022/01/11 08:15:23;;;;;;;311.97;21.93;;;10.50;99.90;;;;;;5110704;28;20176;-64
2022/01/11 08:17:49;;;;;;;31.23;11.97;;;10.50;99.90;;;;;;5092335;28;20529;-64
2022/01/11 08:20:15;;;;;;;32.03;11.27;;;10.50;99.90;;;;;;5093231;28;20168;-84
2022/01/11 08:22:41;;;;;;;25.07;11.07;;;10.60;99.90;;;;;;5095235;28;20203;-83
2022/01/11 08:25:08;;;;;;;35.83;12.90;;;10.60;99.90;;;;;;5094168;28;20208;-83
2022/01/11 08:27:34;;;;;;;28.20;11.43;;;10.60;99.90;;;;;;5093281;28;20172;-84
2022/01/11 08:30:03;;;;;;;31.53;11.17;;;10.60;99.90;;;;;;5104595;28;20203;-84
2022/01/11 08:32:29;;;;;;;32.60;10.87;;;10.60;99.90;;;;;;5114614;28;20263;-85
2022/01/11 08:34:54;;;;;;;28.60;10.77;;;10.60;99.90;;;;;;5113465;28;20600;-83
2022/01/11 08:37:20;;;;;;;28.83;10.17;;;10.60;99.90;;;;;;5112227;28;20683;-88
2022/01/11 08:39:46;;;;;;;27.00;10.10;;;10.70;99.90;;;;;;5101540;28;20215;-81
2022/01/11 08:42:12;;;;;;;32.93;10.30;;;10.70;99.90;;;;;;5097082;28;20254;-68
2022/01/11 08:44:40;;;;;;;29.53;10.50;;;10.70;99.90;;;;;;5092504;28;20704;-72
2022/01/11 08:47:09;;;;;;;33.10;10.20;;;10.70;99.90;;;;;;5096488;28;20199;-72
2022/01/11 08:49:35;;;;;;;22.77;9.90;;;10.80;99.90;;;;;;5098904;28;20221;-71
2022/01/11 08:52:01;;;;;;;24.27;9.60;;;10.80;99.90;;;;;;5092205;28;20160;-71
2022/01/11 08:54:27;;;;;;;23.07;8.93;;;10.90;99.90;;;;;;5111182;28;20701;-71
2022/01/11 08:56:55;;;;;;;21.00;8.67;;;10.90;99.90;;;;;;5111541;28;20193;-71
2022/01/11 08:59:22;;;;;;;23.33;8.27;;;10.90;99.90;;;;;;5096839;28;20167;-71
2022/01/11 09:01:49;;;;;;;15.43;7.77;;;10.90;99.90;;;;;;5091538;28;20202;-73
2022/01/11 09:04:16;;;;;;;17.40;7.70;;;11.00;99.90;;;;;;5091124;28;20250;-71
2022/01/11 09:06:43;;;;;;;21.67;8.43;;;10.90;99.90;;;;;;5092313;28;20185;-71
2022/01/11 09:09:09;;;;;;;16.33;7.80;;;11.00;99.90;;;;;;5091919;28;20190;-69
2022/01/11 09:11:35;;;;;;;18.10;8.30;;;11.00;99.90;;;;;;5105664;28;20203;-72
2022/01/11 09:14:01;;;;;;;22.13;8.37;;;11.10;99.90;;;;;;5093814;28;20219;-70
2022/01/11 09:16:27;;;;;;;16.37;7.63;;;11.10;99.90;;;;;;5091301;28;20183;-63
2022/01/11 09:18:53;;;;;;;23.27;8.20;;;11.20;99.90;;;;;;5096830;28;20656;-75
2022/01/11 09:21:22;;;;;;;21.70;8.40;;;11.20;99.90;;;;;;5111562;28;20190;-66
2022/01/11 09:23:49;;;;;;;25.20;9.30;;;11.20;99.90;;;;;;5111119;28;20251;-67
2022/01/11 09:26:14;;;;;;;16.87;8.83;;;11.20;99.90;;;;;;5110529;28;20179;-66
2022/01/11 09:28:40;;;;;;;14.07;7.70;;;11.10;99.90;;;;;;5109537;28;20191;-66
2022/01/11 09:31:07;;;;;;;20.13;9.20;;;11.10;99.90;;;;;;5110532;28;20174;-66
2022/01/11 09:33:33;;;;;;;18.90;7.00;;;11.00;99.90;;;;;;5111368;28;20178;-68
2022/01/11 09:36:00;;;;;;;15.57;5.70;;;11.10;99.90;;;;;;5110539;28;20167;-66
2022/01/11 09:38:27;;;;;;;11.63;6.10;;;11.10;99.90;;;;;;5091674;28;20266;-67
2022/01/11 09:40:56;;;;;;;9.33;5.47;;;11.00;99.90;;;;;;5091640;28;20733;-65
2022/01/11 09:43:24;;;;;;;9.60;5.67;;;11.00;99.90;;;;;;5109069;28;20206;-68
2022/01/11 09:45:51;;;;;;;8.60;5.40;;;11.00;99.90;;;;;;5103794;28;20164;-63
2022/01/11 09:48:23;;;;;;;8.73;4.87;;;10.90;99.90;;;;;;5095128;28;20172;-67
2022/01/11 09:50:49;;;;;;;8.87;4.67;;;10.90;99.90;;;;;;5111141;28;20175;-72
2022/01/11 09:53:15;;;;;;;13.07;5.57;;;10.90;99.90;;;;;;5110090;28;20253;-79
2022/01/11 09:55:43;;;;;;;12.70;4.80;;;10.80;99.90;;;;;;5100602;28;20175;-66
2022/01/11 09:58:10;;;;;;;11.30;4.23;;;10.80;99.90;;;;;;5099635;28;20172;-77
2022/01/11 10:00:36;;;;;;;7.73;4.57;;;10.80;99.90;;;;;;5104036;28;20605;-76
2022/01/11 10:03:04;;;;;;;12.70;4.70;;;10.80;99.90;;;;;;5110345;28;20711;-75
2022/01/11 10:05:30;;;;;;;9.00;4.77;;;10.80;99.90;;;;;;5109344;28;20180;-76
2022/01/11 10:07:55;;;;;;;8.87;4.90;;;10.80;99.90;;;;;;5105657;28;20658;-78
2022/01/11 10:10:24;;;;;;;178.80;10.77;;;10.80;99.90;;;;;;5101999;28;20176;-77
2022/01/11 10:12:54;;;;;;;9.53;5.50;;;10.80;99.90;;;;;;5092840;28;20175;-77
2022/01/11 10:15:30;;;;;;;8.53;5.37;;;11.70;99.90;;;;;;5092498;28;20171;-77
2022/01/11 10:17:56;;;;;;;12.10;5.20;;;10.90;99.90;;;;;;5094170;28;20415;-75
2022/01/11 10:20:24;;;;;;;10.87;5.40;;;10.90;99.90;;;;;;5091411;28;20179;-75
2022/01/11 10:23:02;;;;;;;10.27;6.00;;;11.00;99.90;;;;;;5101611;28;20214;-78
2022/01/11 10:25:30;;;;;;;11.07;6.70;;;11.10;99.90;;;;;;5110404;28;20182;-74
2022/01/11 10:28:05;;;;;;;10.03;6.10;;;11.20;99.90;;;;;;5110734;28;20167;-74
2022/01/11 10:30:33;;;;;;;13.00;7.70;;;11.30;99.90;;;;;;5106825;28;20167;-76
2022/01/11 10:33:01;;;;;;;11.67;6.80;;;11.20;99.90;;;;;;5092302;28;20183;-75
2022/01/11 10:35:31;;;;;;;12.87;6.80;;;11.30;99.90;;;;;;5094225;28;20160;-76
2022/01/11 10:38:00;;;;;;;17.03;7.13;;;11.50;99.90;;;;;;5094218;28;20168;-75
2022/01/11 10:40:34;;;;;;;10.83;7.07;;;11.50;99.90;;;;;;5093595;28;20326;-75
2022/01/11 10:43:06;;;;;;;11.73;7.37;;;11.50;99.90;;;;;;5093976;28;20265;-75
2022/01/11 10:45:36;;;;;;;12.17;6.97;;;11.40;99.90;;;;;;5093443;28;20198;-62
2022/01/11 10:48:05;;;;;;;17.20;7.53;;;11.40;99.90;;;;;;5096054;28;20263;-76
2022/01/11 10:50:43;;;;;;;13.83;7.17;;;11.40;99.90;;;;;;5093928;28;20257;-77
2022/01/11 10:53:38;;;;;;;14.77;7.23;;;11.40;99.90;;;;;;5097855;28;20201;-78
2022/01/11 10:56:06;;;;;;;13.07;7.77;;;11.40;99.90;;;;;;5110484;28;20179;-77
2022/01/11 10:59:08;;;;;;;12.93;7.37;;;11.40;99.90;;;;;;5098832;28;20183;-78
2022/01/11 11:01:35;;;;;;;14.73;7.03;;;11.40;99.90;;;;;;5093974;28;20262;-78
2022/01/11 11:04:01;;;;;;;15.20;9.30;;;11.50;99.90;;;;;;5096117;28;20438;-77
2022/01/11 11:06:27;;;;;;;10.73;7.03;;;11.50;99.90;;;;;;5093502;28;20176;-77
2022/01/11 11:08:53;;;;;;;11.53;7.00;;;11.50;99.90;;;;;;5097060;28;20240;-77
2022/01/11 11:11:22;;;;;;;11.67;6.07;;;11.50;99.90;;;;;;5101640;28;20220;-63
2022/01/11 11:13:54;;;;;;;9.37;5.73;;;11.50;99.90;;;;;;5093456;28;20188;-61
2022/01/11 11:16:26;;;;;;;7.00;4.70;;;11.50;99.90;;;;;;5102342;28;20191;-60
2022/01/11 11:18:54;;;;;;;5.50;3.57;;;11.50;99.90;;;;;;5110493;28;20175;-61
2022/01/11 11:21:36;;;;;;;6.10;3.73;;;11.50;99.90;;;;;;5112138;28;20250;-60
2022/01/11 11:24:10;;;;;;;4.90;2.93;;;11.50;99.90;;;;;;5101692;28;20207;-60
2022/01/11 11:26:44;;;;;;;8.87;2.57;;;11.40;99.90;;;;;;5095764;28;20176;-61
2022/01/11 11:29:11;;;;;;;3.93;2.30;;;11.40;99.90;;;;;;5109224;28;20534;-60
2022/01/11 11:31:39;;;;;;;2.90;1.90;;;11.40;99.90;;;;;;5113610;28;20167;-60
2022/01/11 11:34:07;;;;;;;7.43;2.13;;;11.40;99.90;;;;;;5113866;28;20250;-60
2022/01/11 11:36:34;;;;;;;3.90;2.30;;;11.20;99.90;;;;;;5091926;28;20540;-60
2022/01/11 11:39:11;;;;;;;2.20;1.53;;;11.30;99.90;;;;;;5093123;28;20172;-60
2022/01/11 11:41:49;;;;;;;5.93;2.03;;;11.30;99.90;;;;;;5075869;28;20204;-60
2022/01/11 11:44:18;;;;;;;8.37;1.93;;;11.30;99.90;;;;;;5082365;28;20681;-60
2022/01/11 11:46:55;;;;;;;3.40;2.07;;;11.30;99.90;;;;;;5088177;28;20173;-60
2022/01/11 11:49:45;;;;;;;3.60;1.83;;;11.40;99.90;;;;;;5091848;28;20259;-60
2022/01/11 11:52:20;;;;;;;3.03;1.53;;;11.40;99.90;;;;;;5092836;28;20192;-60
2022/01/11 11:54:58;;;;;;;4.47;1.80;;;11.40;99.90;;;;;;5092818;28;20176;-60
2022/01/11 11:57:27;;;;;;;8.17;2.00;;;11.40;99.90;;;;;;5091137;28;20660;-60
2022/01/11 11:59:55;;;;;;;3.47;1.83;;;11.40;99.90;;;;;;5092840;28;20203;-61
2022/01/11 12:02:33;;;;;;;4.37;2.63;;;11.40;99.90;;;;;;5091091;28;20735;-61
2022/01/11 12:05:00;;;;;;;4.33;2.73;;;11.40;99.90;;;;;;5080925;28;20176;-61
2022/01/11 12:07:34;;;;;;;6.50;2.93;;;11.40;99.90;;;;;;5081611;28;20703;-61
2022/01/11 12:10:00;;;;;;;10.07;3.27;;;11.40;99.90;;;;;;5074729;28;20183;-61
2022/01/11 12:12:39;;;;;;;6.90;3.43;;;11.40;99.90;;;;;;5080677;28;20183;-61
2022/01/11 12:15:22;;;;;;;5.30;3.40;;;11.40;99.90;;;;;;5072206;28;20202;-61
2022/01/11 12:17:55;;;;;;;7.33;3.50;;;11.40;99.90;;;;;;5072013;28;20199;-61
2022/01/11 12:20:49;;;;;;;9.77;3.57;;;11.40;99.90;;;;;;5072140;28;20172;-61
2022/01/11 12:23:36;;;;;;;9.63;4.03;;;11.50;99.90;;;;;;5072069;28;20272;-60
2022/01/11 12:26:15;;;;;;;8.60;3.67;;;11.40;99.90;;;;;;5071800;28;20200;-61
2022/01/11 12:28:43;;;;;;;7.43;3.23;;;11.70;99.90;;;;;;5071846;28;20198;-60
2022/01/11 12:31:26;;;;;;;7.60;4.10;;;11.50;99.90;;;;;;5091060;28;20203;-60
2022/01/11 12:33:51;;;;;;;10.37;3.17;;;11.50;99.90;;;;;;5091964;28;20168;-61
2022/01/11 12:36:17;;;;;;;7.37;2.90;;;11.60;99.90;;;;;;5090618;28;20654;-61
2022/01/11 12:39:02;;;;;;;8.30;3.20;;;11.60;99.90;;;;;;5090797;28;20186;-61
2022/01/11 12:41:33;;;;;;;20.20;8.27;;;11.60;99.90;;;;;;5111021;28;20249;-60
2022/01/11 12:44:19;;;;;;;6.60;3.47;;;11.60;99.90;;;;;;5100065;28;20302;-60
2022/01/11 12:46:54;;;;;;;6.57;3.60;;;11.60;99.90;;;;;;5104375;28;20286;-60